RAAF Base Curtin
YCIN : now visible

Airfield :











YOU CAN JOIN US ON...

 
LOGIN :

Register | Disclaimer

   EN    FR    IT 

 









Legend :    VFR   Marginal VFR   IFR   Intensive IFR   Very Intensive IFR
Visi :
Ceiling :
>= 8 km
>= 3000ft
5 to 8 km
1000 to 3000 ft
1500m to 5 km
500 to 1000 ft
800 to 1500m
200 to 500 ft
< 800m
< 200 ft
Symbols :   Thunderstorms  Fog  Heavy snow  Heavy precipitations  Wind > 20 kt






- Airport Elevation : 300 ft


YCIN - RAAF Base Curtin

CURRENT METAR :
  • 110600Z AUTO 30006KT 250V360 9999 // NCD 42/14 Q1005

EXPIRED METARs :
  • 110530Z AUTO 15005KT 070V180 9999 // NCD 41/13 Q1005 RF00.0/000.0
  • 110500Z AUTO 21005KT 140V310 9999 // NCD 41/15 Q1006
  • 110430Z AUTO 20006KT 170V310 9999 // NCD 40/15 Q1006 RF00.0/000.0
  • 110400Z AUTO 29007KT 9999 // NCD 40/16 Q1007
  • 110330Z AUTO 15004KT 9999 // NCD 39/16 Q1007 RF00.0/000.0

TAF TAF YCIN
Valid from the 11 at 02:00 until the 11 at 14:00 UTC


110143Z 1102/1114 28008KT CAVOK
FM110500 33012KT CAVOK
TEMPO 1106/1114 VRB25G45KT 2000 TSRA SCT010 SCT090CB



MET'MAP, your aeronautical weather chart ! - Copyright ORBIFLY December 2007 - Disclaimer

ORBIFLY MET'MAP TEAM :

Programming & Development : Alexandra Zaïnal
Concept & original design : Baudouin d'Aumeries
Assistance for programming : Marc-Olivier Méhu
Technical & hardware support : Manuel Goepfert

Contact : metmap@orbifly.com




SOURCES & CREDITS :

   NOAA       Earth
Advisory